createdAt,value
2017-06-24T00:00:51.593Z,58.60
2017-06-24T00:03:19.189Z,58.80
2017-06-24T00:05:46.726Z,59.00
2017-06-24T00:08:14.769Z,59.00
2017-06-24T00:10:42.321Z,59.20
2017-06-24T00:13:09.891Z,59.00
2017-06-24T00:15:37.449Z,59.10
2017-06-24T00:18:05.033Z,59.10
2017-06-24T00:20:32.601Z,59.10
2017-06-24T00:23:00.143Z,59.00
2017-06-24T00:25:27.742Z,59.10
2017-06-24T00:27:55.274Z,59.20
2017-06-24T00:30:22.858Z,59.20
2017-06-24T00:32:50.399Z,59.20
2017-06-24T00:35:17.966Z,59.50
2017-06-24T00:37:45.534Z,59.20
2017-06-24T00:40:13.082Z,59.20
2017-06-24T00:42:40.642Z,59.50
2017-06-24T00:45:08.182Z,59.60
2017-06-24T00:47:35.758Z,59.60
2017-06-24T00:50:03.298Z,59.60
2017-06-24T00:52:30.838Z,59.50
2017-06-24T00:54:58.421Z,59.60
2017-06-24T00:57:25.984Z,59.70
2017-06-24T00:59:53.579Z,59.60
2017-06-24T01:02:21.887Z,59.90
2017-06-24T01:04:49.450Z,59.80
2017-06-24T01:07:16.990Z,59.80
2017-06-24T01:09:44.566Z,59.60
2017-06-24T01:12:12.108Z,59.90
2017-06-24T01:14:39.646Z,59.70
2017-06-24T01:17:07.984Z,59.70
2017-06-24T01:19:35.517Z,59.70
2017-06-24T01:22:03.093Z,59.80
2017-06-24T01:24:30.633Z,59.90
2017-06-24T01:26:58.239Z,59.90
2017-06-24T01:29:25.779Z,60.00
2017-06-24T01:31:53.313Z,59.80
2017-06-24T01:34:20.890Z,60.00
2017-06-24T01:36:48.424Z,59.80
2017-06-24T01:39:15.962Z,60.50
2017-06-24T01:41:43.540Z,60.30
2017-06-24T01:44:11.106Z,60.10
2017-06-24T01:46:38.654Z,60.10
2017-06-24T01:49:06.234Z,60.10
2017-06-24T01:51:33.760Z,60.20
2017-06-24T01:54:01.312Z,59.90
2017-06-24T01:56:29.648Z,60.10
2017-06-24T01:58:57.201Z,60.00
2017-06-24T02:01:24.766Z,60.40
2017-06-24T02:03:52.313Z,60.30
2017-06-24T02:06:19.874Z,60.30
2017-06-24T02:08:47.419Z,60.40
2017-06-24T02:11:14.994Z,60.50
2017-06-24T02:13:42.538Z,60.70
2017-06-24T02:16:10.110Z,60.50
2017-06-24T02:18:37.646Z,60.60
2017-06-24T02:21:05.174Z,61.00
2017-06-24T02:23:33.523Z,61.90
2017-06-24T02:26:01.062Z,61.80
2017-06-24T02:28:28.603Z,62.00
2017-06-24T02:30:56.170Z,61.60
2017-06-24T02:33:23.717Z,62.00
2017-06-24T02:35:51.284Z,61.80
2017-06-24T02:38:18.828Z,61.70
2017-06-24T02:40:46.473Z,62.10
2017-06-24T02:43:14.013Z,62.10
2017-06-24T02:45:42.365Z,62.40
2017-06-24T02:48:09.901Z,62.30
2017-06-24T02:50:37.441Z,62.30
2017-06-24T02:53:05.024Z,62.40
2017-06-24T02:55:32.567Z,62.80
2017-06-24T02:58:00.130Z,62.80
2017-06-24T03:00:27.663Z,62.70
2017-06-24T03:02:55.244Z,63.00
2017-06-24T03:05:22.778Z,63.00
2017-06-24T03:07:50.354Z,63.30
2017-06-24T03:10:17.938Z,63.20
2017-06-24T03:12:45.525Z,63.00
2017-06-24T03:15:13.839Z,63.40
2017-06-24T03:17:41.382Z,63.40
2017-06-24T03:20:08.951Z,63.40
2017-06-24T03:22:36.484Z,63.50
2017-06-24T03:25:04.816Z,64.00
2017-06-24T03:27:32.358Z,63.80
2017-06-24T03:29:59.950Z,63.80
2017-06-24T03:32:27.493Z,64.10
2017-06-24T03:34:55.071Z,64.10
2017-06-24T03:37:22.616Z,64.00
2017-06-24T03:39:50.157Z,63.70
2017-06-24T03:42:17.729Z,63.40
2017-06-24T03:44:45.271Z,63.60
2017-06-24T03:47:12.844Z,63.60
2017-06-24T03:49:40.376Z,63.80
2017-06-24T03:52:07.950Z,63.70
2017-06-24T03:54:35.489Z,63.90
2017-06-24T03:57:03.032Z,64.00
2017-06-24T03:59:31.361Z,63.80
2017-06-24T04:01:58.933Z,63.70
2017-06-24T04:04:26.516Z,63.60
2017-06-24T04:06:54.821Z,64.10
2017-06-24T04:09:22.368Z,64.10
2017-06-24T04:11:49.937Z,63.90
2017-06-24T04:14:17.477Z,64.20
2017-06-24T04:16:45.803Z,64.10
2017-06-24T04:19:13.354Z,64.00
2017-06-24T04:21:41.189Z,64.00
2017-06-24T04:24:08.752Z,64.10
2017-06-24T04:26:36.328Z,63.90
2017-06-24T04:29:03.882Z,63.80
2017-06-24T04:31:31.452Z,63.70
2017-06-24T04:33:58.988Z,63.50
2017-06-24T04:36:26.555Z,63.50
2017-06-24T04:38:54.094Z,63.30
2017-06-24T04:41:21.681Z,63.40
2017-06-24T04:43:49.211Z,62.80
2017-06-24T04:46:16.748Z,63.00
2017-06-24T04:48:45.093Z,62.70
2017-06-24T04:51:12.627Z,62.70
2017-06-24T04:53:40.193Z,62.50
2017-06-24T04:56:07.728Z,62.70
2017-06-24T04:58:35.303Z,62.70
2017-06-24T05:01:02.851Z,62.70
2017-06-24T05:03:30.384Z,62.60
2017-06-24T05:05:57.963Z,62.50
2017-06-24T05:08:25.502Z,61.50
2017-06-24T05:10:53.803Z,61.70
2017-06-24T05:13:21.379Z,61.70
2017-06-24T05:15:48.941Z,61.50
2017-06-24T05:18:16.509Z,61.30
2017-06-24T05:20:44.049Z,61.30
2017-06-24T05:23:11.634Z,61.50
2017-06-24T05:25:39.181Z,61.60
2017-06-24T05:28:06.761Z,62.10
2017-06-24T05:30:34.306Z,62.50
2017-06-24T05:33:01.849Z,62.10
2017-06-24T05:35:29.428Z,62.10
2017-06-24T05:37:56.971Z,61.90
2017-06-24T05:40:24.548Z,62.00
2017-06-24T05:42:52.087Z,62.00
2017-06-24T05:45:19.622Z,62.20
2017-06-24T05:47:47.197Z,61.70
2017-06-24T05:50:14.779Z,61.00
2017-06-24T05:52:42.363Z,60.20
2017-06-24T05:55:10.705Z,60.10
2017-06-24T05:57:38.302Z,60.00
2017-06-24T06:00:06.601Z,59.50
2017-06-24T06:02:34.151Z,59.50
2017-06-24T06:05:01.736Z,59.10
2017-06-24T06:07:29.286Z,58.60
2017-06-24T06:09:56.894Z,58.40
2017-06-24T06:12:24.433Z,57.50
2017-06-24T06:14:52.000Z,56.60
2017-06-24T06:17:19.544Z,56.00
2017-06-24T06:19:47.282Z,55.10
2017-06-24T06:22:14.815Z,55.00
2017-06-24T06:24:43.143Z,55.50
2017-06-24T06:27:10.720Z,55.40
2017-06-24T06:29:38.263Z,55.30
2017-06-24T06:32:05.842Z,55.70
2017-06-24T06:34:33.382Z,55.80
2017-06-24T06:37:00.954Z,56.30
2017-06-24T06:39:28.530Z,56.00
2017-06-24T06:41:56.082Z,56.60
2017-06-24T06:44:23.648Z,57.00
2017-06-24T06:46:51.190Z,56.50
2017-06-24T06:49:18.768Z,56.80
2017-06-24T06:51:46.338Z,56.60
2017-06-24T06:54:14.666Z,56.40
2017-06-24T06:56:42.230Z,56.30
2017-06-24T06:59:09.766Z,56.00
2017-06-24T07:01:37.330Z,56.50
2017-06-24T07:04:04.870Z,56.20
2017-06-24T07:06:32.452Z,56.30
2017-06-24T07:08:59.994Z,56.40
2017-06-24T07:11:27.535Z,56.30
2017-06-24T07:13:55.110Z,56.00
2017-06-24T07:16:22.645Z,55.60
2017-06-24T07:18:51.020Z,54.90
2017-06-24T07:21:19.321Z,53.70
2017-06-24T07:23:46.869Z,53.60
2017-06-24T07:26:14.485Z,53.50
2017-06-24T07:28:42.023Z,53.30
2017-06-24T07:31:09.884Z,53.70
2017-06-24T07:33:37.452Z,53.00
2017-06-24T07:36:04.981Z,52.70
2017-06-24T07:38:32.553Z,52.70
2017-06-24T07:41:00.093Z,52.40
2017-06-24T07:43:27.675Z,51.40
2017-06-24T07:45:55.205Z,50.70
2017-06-24T07:48:22.747Z,51.00
2017-06-24T07:50:51.132Z,51.50
2017-06-24T07:53:18.733Z,51.40
2017-06-24T07:55:46.277Z,51.30
2017-06-24T07:58:13.805Z,51.50
2017-06-24T08:00:42.154Z,51.60
2017-06-24T08:03:09.686Z,51.60
2017-06-24T08:05:37.218Z,50.90
2017-06-24T08:08:04.790Z,51.00
2017-06-24T08:10:32.322Z,51.00
2017-06-24T08:13:00.191Z,50.60
2017-06-24T08:15:27.735Z,50.40
2017-06-24T08:17:56.147Z,51.00
2017-06-24T08:20:23.685Z,50.80
2017-06-24T08:22:51.260Z,50.80
2017-06-24T08:25:18.789Z,51.00
2017-06-24T08:27:47.418Z,51.70
2017-06-24T08:30:15.040Z,51.60
2017-06-24T08:32:42.627Z,51.70
2017-06-24T08:35:10.198Z,51.50
2017-06-24T08:37:37.729Z,51.70
2017-06-24T08:40:05.294Z,51.40
2017-06-24T08:42:32.832Z,51.00
2017-06-24T08:45:05.498Z,50.90
2017-06-24T08:47:33.814Z,51.70
2017-06-24T08:50:01.351Z,51.60
2017-06-24T08:52:28.921Z,51.80
2017-06-24T08:54:56.461Z,51.60
2017-06-24T08:57:24.033Z,51.90
2017-06-24T08:59:51.573Z,52.30
2017-06-24T09:02:19.153Z,52.10
2017-06-24T09:04:46.693Z,51.80
2017-06-24T09:07:16.945Z,52.10
2017-06-24T09:09:44.478Z,52.10
2017-06-24T09:12:12.816Z,51.40
2017-06-24T09:14:40.362Z,51.30
2017-06-24T09:17:07.910Z,51.40
2017-06-24T09:19:35.479Z,51.90
2017-06-24T09:22:03.546Z,51.70
2017-06-24T09:24:31.110Z,52.10
2017-06-24T09:27:00.293Z,51.70
2017-06-24T09:29:27.857Z,51.20
2017-06-24T09:31:55.395Z,51.70
2017-06-24T09:34:25.594Z,51.20
2017-06-24T09:36:55.771Z,51.50
2017-06-24T09:39:24.576Z,51.40
2017-06-24T09:41:52.375Z,51.50
2017-06-24T09:44:19.986Z,51.40
2017-06-24T09:46:47.523Z,51.90
2017-06-24T09:49:15.064Z,51.50
2017-06-24T09:51:42.634Z,52.10
2017-06-24T09:54:10.183Z,52.00
2017-06-24T09:56:37.826Z,51.90
2017-06-24T09:59:05.382Z,52.20
2017-06-24T10:01:32.965Z,52.10
2017-06-24T10:04:00.531Z,51.80
2017-06-24T10:06:28.119Z,52.20
2017-06-24T10:08:55.657Z,52.20
2017-06-24T10:11:23.217Z,52.30
2017-06-24T10:13:50.781Z,52.10
2017-06-24T10:16:18.313Z,52.30
2017-06-24T10:18:45.895Z,52.70
2017-06-24T10:21:13.428Z,52.80
2017-06-24T10:23:40.998Z,53.00
2017-06-24T10:26:08.543Z,52.90
2017-06-24T10:28:36.119Z,53.20
2017-06-24T10:31:03.659Z,52.80
2017-06-24T10:33:31.810Z,52.90
2017-06-24T10:35:59.951Z,53.20
2017-06-24T10:38:27.485Z,53.50
2017-06-24T10:40:55.057Z,53.50
2017-06-24T10:43:22.637Z,53.80
2017-06-24T10:45:50.216Z,54.00
2017-06-24T10:48:18.530Z,53.80
2017-06-24T10:50:46.126Z,53.80
2017-06-24T10:53:13.685Z,54.10
2017-06-24T10:55:41.259Z,53.70
2017-06-24T10:58:09.566Z,52.50
2017-06-24T11:00:37.166Z,52.40
2017-06-24T11:03:04.710Z,51.80
2017-06-24T11:05:32.246Z,51.50
2017-06-24T11:07:59.828Z,51.20
2017-06-24T11:10:27.370Z,51.60
2017-06-24T11:12:54.949Z,51.50
2017-06-24T11:15:22.490Z,51.00
2017-06-24T11:17:50.063Z,50.70
2017-06-24T11:20:17.615Z,50.90
2017-06-24T11:22:45.218Z,50.70
2017-06-24T11:25:12.757Z,49.40
2017-06-24T11:27:40.327Z,49.70
2017-06-24T11:30:07.919Z,49.10
2017-06-24T11:32:35.465Z,49.60
2017-06-24T11:35:03.047Z,49.60
2017-06-24T11:37:30.601Z,49.70
2017-06-24T11:39:58.209Z,49.50
2017-06-24T11:42:25.759Z,49.60
2017-06-24T11:44:53.338Z,49.50
2017-06-24T11:47:20.879Z,49.90
2017-06-24T11:49:48.480Z,50.00
2017-06-24T11:52:16.797Z,50.30
2017-06-24T11:54:44.351Z,50.20
2017-06-24T11:57:11.918Z,50.30
2017-06-24T11:59:39.464Z,50.40
2017-06-24T12:02:07.042Z,50.80
2017-06-24T12:04:34.598Z,49.90
2017-06-24T12:07:02.164Z,49.20
2017-06-24T12:09:29.727Z,49.50
2017-06-24T12:11:57.308Z,49.50
2017-06-24T12:14:24.842Z,49.40
2017-06-24T12:16:52.421Z,49.40
2017-06-24T12:19:19.960Z,49.40
2017-06-24T12:21:47.530Z,49.40
2017-06-24T12:24:15.084Z,49.80
2017-06-24T12:26:42.648Z,49.80
2017-06-24T12:29:10.207Z,49.90
2017-06-24T12:31:37.786Z,50.00
2017-06-24T12:34:05.326Z,50.60
2017-06-24T12:36:33.019Z,50.60
2017-06-24T12:39:00.602Z,50.20
2017-06-24T12:41:28.145Z,50.20
2017-06-24T12:43:55.713Z,49.20
2017-06-24T12:46:23.277Z,49.30
2017-06-24T12:48:50.862Z,48.60
2017-06-24T12:51:18.400Z,48.80
2017-06-24T12:53:46.117Z,48.70
2017-06-24T12:56:13.709Z,49.00
2017-06-24T12:58:41.409Z,49.10
2017-06-24T13:01:08.959Z,49.20
2017-06-24T13:03:36.535Z,48.80
2017-06-24T13:06:04.121Z,48.70
2017-06-24T13:08:31.665Z,48.50
2017-06-24T13:10:59.242Z,48.20
2017-06-24T13:13:27.545Z,47.80
2017-06-24T13:15:55.117Z,47.70
2017-06-24T13:18:22.661Z,47.90
2017-06-24T13:20:50.239Z,48.20
2017-06-24T13:23:17.804Z,48.00
2017-06-24T13:25:45.348Z,47.80
2017-06-24T13:28:12.921Z,47.30
2017-06-24T13:30:40.475Z,47.20
2017-06-24T13:33:08.058Z,47.20
2017-06-24T13:35:35.638Z,46.90
2017-06-24T13:38:03.178Z,46.60
2017-06-24T13:40:30.752Z,46.50
2017-06-24T13:42:58.299Z,47.00
2017-06-24T13:45:25.870Z,47.30
2017-06-24T13:47:53.414Z,47.50
2017-06-24T13:50:20.978Z,47.10
2017-06-24T13:52:48.522Z,47.50
2017-06-24T13:55:16.085Z,47.40
2017-06-24T13:57:43.620Z,47.60
2017-06-24T14:00:11.193Z,46.70
2017-06-24T14:02:38.741Z,46.80
2017-06-24T14:05:06.318Z,46.90
2017-06-24T14:07:33.896Z,46.40
2017-06-24T14:10:02.203Z,46.40
2017-06-24T14:12:30.514Z,46.10
2017-06-24T14:15:01.820Z,46.50
2017-06-24T14:17:29.354Z,45.60
2017-06-24T14:19:56.913Z,45.70
2017-06-24T14:22:24.450Z,45.20
2017-06-24T14:24:52.017Z,45.10
2017-06-24T14:27:21.302Z,45.20
2017-06-24T14:29:49.461Z,44.90
2017-06-24T14:32:19.631Z,44.90
2017-06-24T14:34:47.975Z,45.00
2017-06-24T14:37:15.542Z,45.00
2017-06-24T14:39:44.881Z,45.10
2017-06-24T14:42:12.438Z,45.10
2017-06-24T14:44:40.009Z,44.40
2017-06-24T14:47:07.550Z,45.00
2017-06-24T14:49:35.882Z,45.20
2017-06-24T14:52:03.450Z,45.10
2017-06-24T14:54:30.990Z,45.50
2017-06-24T14:56:58.582Z,45.70
2017-06-24T14:59:26.160Z,46.10
2017-06-24T15:01:54.482Z,46.60
2017-06-24T15:04:22.718Z,46.60
2017-06-24T15:06:52.037Z,46.80
2017-06-24T15:09:19.621Z,46.80
2017-06-24T15:11:47.153Z,47.00
2017-06-24T15:14:20.408Z,46.90
2017-06-24T15:16:48.729Z,46.80
2017-06-24T15:19:16.301Z,47.20
2017-06-24T15:21:45.067Z,47.80
2017-06-24T15:24:12.631Z,47.80
2017-06-24T15:26:40.175Z,47.70
2017-06-24T15:29:12.136Z,47.90
2017-06-24T15:31:40.704Z,47.50
2017-06-24T15:34:09.042Z,47.90
2017-06-24T15:36:36.614Z,47.90
2017-06-24T15:39:04.170Z,47.60
2017-06-24T15:41:31.737Z,47.70
2017-06-24T15:43:59.277Z,48.20
2017-06-24T15:46:26.921Z,48.80
2017-06-24T15:48:54.455Z,48.60
2017-06-24T15:51:27.250Z,48.80
2017-06-24T15:53:54.816Z,49.50
2017-06-24T15:56:22.411Z,49.50
2017-06-24T15:58:49.989Z,49.20
2017-06-24T16:01:21.452Z,49.70
2017-06-24T16:03:49.027Z,49.60
2017-06-24T16:06:16.571Z,49.60
2017-06-24T16:08:44.133Z,49.70
2017-06-24T16:11:11.746Z,50.00
2017-06-24T16:13:41.132Z,50.00
2017-06-24T16:16:13.811Z,49.90
2017-06-24T16:18:42.363Z,49.90
2017-06-24T16:21:10.209Z,50.10
2017-06-24T16:23:38.550Z,50.20
2017-06-24T16:26:06.085Z,50.20
2017-06-24T16:28:33.672Z,50.20
2017-06-24T16:31:01.212Z,50.20
2017-06-24T16:33:28.744Z,50.30
2017-06-24T16:35:56.335Z,50.20
2017-06-24T16:38:23.870Z,50.50
2017-06-24T16:40:51.440Z,50.50
2017-06-24T16:43:18.982Z,50.20
2017-06-24T16:45:46.568Z,50.20
2017-06-24T16:48:15.586Z,50.40
2017-06-24T16:50:43.498Z,50.30
2017-06-24T16:53:14.998Z,50.70
2017-06-24T16:55:42.623Z,50.70
2017-06-24T16:58:10.197Z,50.30
2017-06-24T17:00:37.741Z,50.60
2017-06-24T17:03:05.325Z,50.30
2017-06-24T17:05:32.947Z,50.30
2017-06-24T17:08:00.493Z,50.20
2017-06-24T17:10:28.064Z,50.20
2017-06-24T17:12:55.618Z,50.40
2017-06-24T17:15:23.197Z,50.10
2017-06-24T17:17:51.527Z,50.40
2017-06-24T17:20:19.862Z,50.40
2017-06-24T17:22:47.404Z,51.00
2017-06-24T17:25:14.987Z,50.70
2017-06-24T17:27:42.537Z,50.80
2017-06-24T17:30:10.078Z,50.10
2017-06-24T17:32:37.657Z,50.50
2017-06-24T17:35:05.201Z,50.00
2017-06-24T17:37:32.984Z,49.40
2017-06-24T17:40:00.526Z,49.60
2017-06-24T17:42:28.092Z,49.70
2017-06-24T17:44:55.714Z,50.40
2017-06-24T17:47:23.278Z,50.60
2017-06-24T17:49:50.814Z,50.50
2017-06-24T17:52:18.906Z,50.80
2017-06-24T17:54:46.485Z,51.30
2017-06-24T17:57:14.696Z,51.30
2017-06-24T17:59:42.276Z,51.30
2017-06-24T18:02:09.811Z,51.20
2017-06-24T18:04:38.013Z,51.20
2017-06-24T18:07:07.101Z,51.80
2017-06-24T18:09:35.403Z,52.10
2017-06-24T18:12:05.018Z,52.20
2017-06-24T18:14:33.418Z,52.20
2017-06-24T18:17:14.952Z,51.80
2017-06-24T18:19:42.554Z,52.10
2017-06-24T18:22:10.130Z,53.20
2017-06-24T18:24:37.690Z,52.60
2017-06-24T18:27:05.640Z,53.00
2017-06-24T18:29:33.174Z,52.40
2017-06-24T18:32:00.742Z,52.20
2017-06-24T18:34:28.270Z,52.40
2017-06-24T18:36:57.134Z,52.50
2017-06-24T18:39:27.746Z,52.50
2017-06-24T18:41:55.329Z,52.30
2017-06-24T18:44:22.905Z,52.20
2017-06-24T18:46:50.469Z,52.40
2017-06-24T18:49:18.097Z,52.40
2017-06-24T18:51:45.673Z,52.50
2017-06-24T18:54:13.504Z,52.70
2017-06-24T18:56:41.057Z,52.30
2017-06-24T18:59:08.637Z,52.30
2017-06-24T19:01:36.215Z,51.90
2017-06-24T19:04:03.755Z,52.00
2017-06-24T19:06:31.348Z,51.50
2017-06-24T19:08:59.639Z,50.40
2017-06-24T19:11:27.181Z,50.40
2017-06-24T19:13:55.515Z,50.80
2017-06-24T19:16:23.057Z,50.20
2017-06-24T19:18:50.636Z,49.70
2017-06-24T19:21:18.178Z,49.30
2017-06-24T19:23:45.746Z,49.00
2017-06-24T19:26:13.273Z,49.10
2017-06-24T19:28:40.840Z,49.00
2017-06-24T19:31:09.088Z,48.60
2017-06-24T19:33:37.430Z,49.00
2017-06-24T19:36:05.780Z,49.00
2017-06-24T19:38:33.324Z,49.70
2017-06-24T19:41:01.606Z,50.40
2017-06-24T19:43:29.977Z,51.30
2017-06-24T19:45:58.386Z,51.80
2017-06-24T19:48:25.926Z,52.40
2017-06-24T19:50:53.504Z,52.60
2017-06-24T19:53:22.072Z,52.90
2017-06-24T19:55:51.118Z,53.20
2017-06-24T19:58:19.558Z,53.30
2017-06-24T20:00:47.154Z,53.90
2017-06-24T20:03:14.722Z,54.40
2017-06-24T20:05:43.024Z,54.70
2017-06-24T20:08:10.594Z,54.60
2017-06-24T20:10:38.171Z,54.90
2017-06-24T20:13:05.768Z,55.10
2017-06-24T20:15:33.354Z,55.20
2017-06-24T20:18:00.896Z,55.40
2017-06-24T20:20:28.472Z,55.50
2017-06-24T20:22:56.014Z,55.30
2017-06-24T20:25:23.586Z,55.50
2017-06-24T20:27:51.134Z,55.60
2017-06-24T20:30:18.714Z,55.60
2017-06-24T20:32:47.329Z,55.50
2017-06-24T20:35:14.929Z,55.70
2017-06-24T20:37:43.252Z,56.30
2017-06-24T20:40:10.837Z,56.20
2017-06-24T20:42:38.378Z,56.60
2017-06-24T20:45:05.909Z,56.50
2017-06-24T20:47:34.117Z,56.40
2017-06-24T20:50:01.665Z,56.40
2017-06-24T20:52:29.235Z,56.50
2017-06-24T20:54:56.812Z,56.50
2017-06-24T20:57:24.386Z,56.70
2017-06-24T20:59:51.958Z,57.00
2017-06-24T21:02:19.557Z,57.30
2017-06-24T21:04:47.090Z,57.30
2017-06-24T21:07:14.629Z,57.30
2017-06-24T21:09:42.974Z,57.40
2017-06-24T21:12:10.518Z,57.40
2017-06-24T21:14:38.087Z,57.40
2017-06-24T21:17:05.639Z,57.40
2017-06-24T21:19:33.206Z,57.60
2017-06-24T21:22:30.439Z,57.40
2017-06-24T21:24:58.032Z,57.50
2017-06-24T21:27:25.564Z,57.40
2017-06-24T21:29:53.138Z,57.80
2017-06-24T21:32:20.716Z,57.80
2017-06-24T21:34:49.017Z,58.10
2017-06-24T21:37:16.593Z,58.10
2017-06-24T21:39:44.149Z,58.20
2017-06-24T21:42:12.681Z,58.30
2017-06-24T21:44:40.221Z,58.40
2017-06-24T21:47:07.773Z,58.70
2017-06-24T21:49:35.347Z,58.70
2017-06-24T21:52:02.917Z,59.00
2017-06-24T21:54:31.246Z,59.10
2017-06-24T21:56:58.814Z,59.20
2017-06-24T21:59:26.382Z,59.30
2017-06-24T22:01:53.914Z,59.40
2017-06-24T22:04:21.489Z,59.60
2017-06-24T22:06:49.033Z,59.60
2017-06-24T22:09:16.613Z,59.80
2017-06-24T22:11:44.147Z,59.80
2017-06-24T22:14:11.722Z,60.30
2017-06-24T22:16:39.315Z,60.30
2017-06-24T22:19:06.867Z,60.30
2017-06-24T22:21:34.445Z,60.70
2017-06-24T22:24:02.765Z,61.10
2017-06-24T22:26:30.343Z,61.10
2017-06-24T22:28:57.881Z,60.80
2017-06-24T22:31:25.461Z,61.10
2017-06-24T22:33:53.329Z,60.80
2017-06-24T22:36:20.898Z,60.90
2017-06-24T22:38:48.437Z,61.10
2017-06-24T22:41:16.021Z,61.20
2017-06-24T22:43:43.605Z,61.60
2017-06-24T22:46:11.912Z,61.80
2017-06-24T22:48:40.919Z,61.80
2017-06-24T22:51:08.498Z,61.50
2017-06-24T22:53:36.041Z,61.80
2017-06-24T22:56:03.622Z,62.00
2017-06-24T22:58:31.162Z,62.10
2017-06-24T23:00:58.734Z,62.10
2017-06-24T23:03:27.135Z,62.10
2017-06-24T23:05:54.703Z,62.20
2017-06-24T23:08:23.013Z,62.20
2017-06-24T23:10:50.602Z,62.20
2017-06-24T23:13:18.238Z,61.90
2017-06-24T23:15:45.818Z,62.00
2017-06-24T23:18:14.254Z,62.00
2017-06-24T23:20:41.795Z,61.90
2017-06-24T23:23:09.365Z,61.90
2017-06-24T23:25:37.673Z,62.00
2017-06-24T23:28:05.249Z,61.90
2017-06-24T23:30:32.783Z,62.00
2017-06-24T23:33:00.329Z,61.90
2017-06-24T23:35:27.919Z,61.90
2017-06-24T23:37:55.470Z,61.60
2017-06-24T23:40:23.036Z,61.40
2017-06-24T23:42:50.574Z,61.60
2017-06-24T23:45:18.136Z,61.40
2017-06-24T23:47:45.676Z,61.40
2017-06-24T23:50:13.247Z,61.50
2017-06-24T23:52:40.794Z,61.70
2017-06-24T23:55:08.362Z,61.40
2017-06-24T23:57:38.792Z,61.60
